Khoy, Iran
Current Conditions -  °F | °C
As of 7:50 AM on Saturday 25 Oct 2014 (Local Time) from OITU Reporting Station
Clear Clear  
Wind Chill: 13°   Ceiling: Unl
Heat Index: 13°   Visibility: 6mi
Dew Point:   Wind: 12mph
Humidity: 51%   Direction: 270°W
Pressure: 30.09"   Gusts: NA
Location:  38.53°N, 44.97°E
Report Text: OITU 250450Z 27010KT CAVOK 13/03 Q1019
Loading
Personal Weather Stations






























Interactive Weather Map
Tropical Storm Tracking
New forecast layout! Learn more

10-Day Weather Forecast

Advertisements
Track Severe Weather on mobile